sensor_id;sensor_type;location;lat;lon;timestamp;temperature;humidity
17092;DHT22;8661;45.700;4.880;2023-04-03T00:01:05;9.00;99.90
17092;DHT22;8661;45.700;4.880;2023-04-03T00:03:32;9.00;99.90
17092;DHT22;8661;45.700;4.880;2023-04-03T00:06:00;9.00;99.90
17092;DHT22;8661;45.700;4.880;2023-04-03T00:08:27;9.10;99.90
17092;DHT22;8661;45.700;4.880;2023-04-03T00:10:57;9.00;99.90
17092;DHT22;8661;45.700;4.880;2023-04-03T00:13:25;9.00;99.90
17092;DHT22;8661;45.700;4.880;2023-04-03T00:15:52;9.00;99.90
17092;DHT22;8661;45.700;4.880;2023-04-03T00:18:19;9.00;99.90
17092;DHT22;8661;45.700;4.880;2023-04-03T00:20:47;9.00;99.90
17092;DHT22;8661;45.700;4.880;2023-04-03T00:23:14;9.10;99.90
17092;DHT22;8661;45.700;4.880;2023-04-03T00:25:42;9.10;99.90
17092;DHT22;8661;45.700;4.880;2023-04-03T00:28:10;9.10;99.90
17092;DHT22;8661;45.700;4.880;2023-04-03T00:30:40;9.00;99.90
17092;DHT22;8661;45.700;4.880;2023-04-03T00:33:07;9.00;99.90
17092;DHT22;8661;45.700;4.880;2023-04-03T00:35:34;9.00;99.90
17092;DHT22;8661;45.700;4.880;2023-04-03T00:38:01;9.00;99.90
17092;DHT22;8661;45.700;4.880;2023-04-03T00:40:33;9.00;99.90
17092;DHT22;8661;45.700;4.880;2023-04-03T00:43:00;9.00;99.90
17092;DHT22;8661;45.700;4.880;2023-04-03T00:45:34;9.00;99.90
17092;DHT22;8661;45.700;4.880;2023-04-03T00:48:04;8.90;99.90
17092;DHT22;8661;45.700;4.880;2023-04-03T00:50:34;8.90;99.90
17092;DHT22;8661;45.700;4.880;2023-04-03T00:53:03;9.00;99.90
17092;DHT22;8661;45.700;4.880;2023-04-03T00:55:31;9.00;99.90
17092;DHT22;8661;45.700;4.880;2023-04-03T00:57:59;9.00;99.90
17092;DHT22;8661;45.700;4.880;2023-04-03T01:00:34;8.90;99.90
17092;DHT22;8661;45.700;4.880;2023-04-03T01:03:02;8.90;99.90
17092;DHT22;8661;45.700;4.880;2023-04-03T01:05:29;8.90;99.90
17092;DHT22;8661;45.700;4.880;2023-04-03T01:07:57;9.00;99.90
17092;DHT22;8661;45.700;4.880;2023-04-03T01:10:24;9.00;99.90
17092;DHT22;8661;45.700;4.880;2023-04-03T01:12:51;9.00;99.90
17092;DHT22;8661;45.700;4.880;2023-04-03T01:15:21;9.00;99.90
17092;DHT22;8661;45.700;4.880;2023-04-03T01:17:51;9.00;99.90
17092;DHT22;8661;45.700;4.880;2023-04-03T01:23:28;9.00;99.90
17092;DHT22;8661;45.700;4.880;2023-04-03T01:25:58;9.00;99.90
17092;DHT22;8661;45.700;4.880;2023-04-03T01:28:27;9.00;99.90
17092;DHT22;8661;45.700;4.880;2023-04-03T01:31:00;9.00;99.90
17092;DHT22;8661;45.700;4.880;2023-04-03T01:33:30;9.00;99.90
17092;DHT22;8661;45.700;4.880;2023-04-03T01:35:58;9.00;99.90
17092;DHT22;8661;45.700;4.880;2023-04-03T01:38:25;8.90;99.90
17092;DHT22;8661;45.700;4.880;2023-04-03T01:40:54;8.90;99.90
17092;DHT22;8661;45.700;4.880;2023-04-03T01:43:21;8.90;99.90
17092;DHT22;8661;45.700;4.880;2023-04-03T01:45:48;8.90;99.90
17092;DHT22;8661;45.700;4.880;2023-04-03T01:48:16;8.90;99.90
17092;DHT22;8661;45.700;4.880;2023-04-03T01:50:44;8.90;99.90
17092;DHT22;8661;45.700;4.880;2023-04-03T01:53:11;8.90;99.90
17092;DHT22;8661;45.700;4.880;2023-04-03T01:55:38;8.90;99.90
17092;DHT22;8661;45.700;4.880;2023-04-03T01:58:05;8.90;99.90
17092;DHT22;8661;45.700;4.880;2023-04-03T02:00:32;8.80;99.90
17092;DHT22;8661;45.700;4.880;2023-04-03T02:02:59;8.90;99.90
17092;DHT22;8661;45.700;4.880;2023-04-03T02:05:26;8.90;99.90
17092;DHT22;8661;45.700;4.880;2023-04-03T02:07:54;8.80;99.90
17092;DHT22;8661;45.700;4.880;2023-04-03T02:10:21;8.80;99.90
17092;DHT22;8661;45.700;4.880;2023-04-03T02:12:48;8.80;99.90
17092;DHT22;8661;45.700;4.880;2023-04-03T02:15:16;8.80;99.90
17092;DHT22;8661;45.700;4.880;2023-04-03T02:17:43;8.80;99.90
17092;DHT22;8661;45.700;4.880;2023-04-03T02:20:10;8.70;99.90
17092;DHT22;8661;45.700;4.880;2023-04-03T02:22:37;8.80;99.90
17092;DHT22;8661;45.700;4.880;2023-04-03T02:25:06;8.70;99.90
17092;DHT22;8661;45.700;4.880;2023-04-03T02:27:33;8.70;99.90
17092;DHT22;8661;45.700;4.880;2023-04-03T02:30:00;8.70;99.90
17092;DHT22;8661;45.700;4.880;2023-04-03T02:32:27;8.80;99.90
17092;DHT22;8661;45.700;4.880;2023-04-03T02:34:54;8.80;99.90
17092;DHT22;8661;45.700;4.880;2023-04-03T02:37:21;8.70;99.90
17092;DHT22;8661;45.700;4.880;2023-04-03T02:39:48;8.70;99.90
17092;DHT22;8661;45.700;4.880;2023-04-03T02:42:16;8.70;99.90
17092;DHT22;8661;45.700;4.880;2023-04-03T02:44:43;8.70;99.90
17092;DHT22;8661;45.700;4.880;2023-04-03T02:47:10;8.70;99.90
17092;DHT22;8661;45.700;4.880;2023-04-03T02:49:37;8.70;99.90
17092;DHT22;8661;45.700;4.880;2023-04-03T02:52:04;8.80;99.90
17092;DHT22;8661;45.700;4.880;2023-04-03T02:54:31;8.70;99.90
17092;DHT22;8661;45.700;4.880;2023-04-03T02:56:58;8.70;99.90
17092;DHT22;8661;45.700;4.880;2023-04-03T02:59:27;8.70;99.90
17092;DHT22;8661;45.700;4.880;2023-04-03T03:01:54;8.70;99.90
17092;DHT22;8661;45.700;4.880;2023-04-03T03:04:21;8.80;99.90
17092;DHT22;8661;45.700;4.880;2023-04-03T03:06:51;8.80;99.90
17092;DHT22;8661;45.700;4.880;2023-04-03T03:09:21;8.80;99.90
17092;DHT22;8661;45.700;4.880;2023-04-03T03:11:48;8.80;99.90
17092;DHT22;8661;45.700;4.880;2023-04-03T03:14:17;8.80;99.90
17092;DHT22;8661;45.700;4.880;2023-04-03T03:16:46;8.90;99.90
17092;DHT22;8661;45.700;4.880;2023-04-03T03:19:13;8.80;99.90
17092;DHT22;8661;45.700;4.880;2023-04-03T03:21:40;8.90;99.90
17092;DHT22;8661;45.700;4.880;2023-04-03T03:24:07;8.90;99.90
17092;DHT22;8661;45.700;4.880;2023-04-03T03:26:34;8.80;99.90
17092;DHT22;8661;45.700;4.880;2023-04-03T03:29:01;8.80;99.90
17092;DHT22;8661;45.700;4.880;2023-04-03T03:31:28;8.80;99.90
17092;DHT22;8661;45.700;4.880;2023-04-03T03:33:57;8.80;99.90
17092;DHT22;8661;45.700;4.880;2023-04-03T03:36:24;8.80;99.90
17092;DHT22;8661;45.700;4.880;2023-04-03T03:38:51;8.90;99.90
17092;DHT22;8661;45.700;4.880;2023-04-03T03:41:17;8.90;99.90
17092;DHT22;8661;45.700;4.880;2023-04-03T03:43:46;8.80;99.90
17092;DHT22;8661;45.700;4.880;2023-04-03T03:46:13;8.90;99.90
17092;DHT22;8661;45.700;4.880;2023-04-03T03:48:40;8.90;99.90
17092;DHT22;8661;45.700;4.880;2023-04-03T03:51:09;8.90;99.90
17092;DHT22;8661;45.700;4.880;2023-04-03T03:53:36;8.80;99.90
17092;DHT22;8661;45.700;4.880;2023-04-03T03:56:12;8.80;99.90
17092;DHT22;8661;45.700;4.880;2023-04-03T03:58:41;8.80;99.90
17092;DHT22;8661;45.700;4.880;2023-04-03T04:01:08;8.80;99.90
17092;DHT22;8661;45.700;4.880;2023-04-03T04:03:35;8.80;99.90
17092;DHT22;8661;45.700;4.880;2023-04-03T04:06:02;8.90;99.90
17092;DHT22;8661;45.700;4.880;2023-04-03T04:08:31;8.80;99.90
17092;DHT22;8661;45.700;4.880;2023-04-03T04:10:58;8.80;99.90
17092;DHT22;8661;45.700;4.880;2023-04-03T04:13:25;8.90;99.90
17092;DHT22;8661;45.700;4.880;2023-04-03T04:15:52;8.80;99.90
17092;DHT22;8661;45.700;4.880;2023-04-03T04:18:21;8.80;99.90
17092;DHT22;8661;45.700;4.880;2023-04-03T04:20:52;8.80;99.90
17092;DHT22;8661;45.700;4.880;2023-04-03T04:23:20;8.90;99.90
17092;DHT22;8661;45.700;4.880;2023-04-03T04:25:52;8.90;99.90
17092;DHT22;8661;45.700;4.880;2023-04-03T04:28:19;8.90;99.90
17092;DHT22;8661;45.700;4.880;2023-04-03T04:30:46;9.00;99.90
17092;DHT22;8661;45.700;4.880;2023-04-03T04:33:12;8.90;99.90
17092;DHT22;8661;45.700;4.880;2023-04-03T04:35:41;8.90;99.90
17092;DHT22;8661;45.700;4.880;2023-04-03T04:38:08;8.90;99.90
17092;DHT22;8661;45.700;4.880;2023-04-03T04:40:36;8.90;99.90
17092;DHT22;8661;45.700;4.880;2023-04-03T04:43:04;8.90;99.90
17092;DHT22;8661;45.700;4.880;2023-04-03T04:45:31;8.90;99.90
17092;DHT22;8661;45.700;4.880;2023-04-03T04:47:58;9.00;99.90
17092;DHT22;8661;45.700;4.880;2023-04-03T04:50:25;9.00;99.90
17092;DHT22;8661;45.700;4.880;2023-04-03T04:52:52;9.00;99.90
17092;DHT22;8661;45.700;4.880;2023-04-03T04:55:19;9.00;99.90
17092;DHT22;8661;45.700;4.880;2023-04-03T04:57:46;9.00;99.90
17092;DHT22;8661;45.700;4.880;2023-04-03T05:00:16;9.00;99.90
17092;DHT22;8661;45.700;4.880;2023-04-03T05:02:45;9.00;99.90
17092;DHT22;8661;45.700;4.880;2023-04-03T05:05:12;9.00;99.90
17092;DHT22;8661;45.700;4.880;2023-04-03T05:07:39;9.00;99.90
17092;DHT22;8661;45.700;4.880;2023-04-03T05:10:08;9.00;99.90
17092;DHT22;8661;45.700;4.880;2023-04-03T05:12:35;9.10;99.90
17092;DHT22;8661;45.700;4.880;2023-04-03T05:15:03;9.10;99.90
17092;DHT22;8661;45.700;4.880;2023-04-03T05:17:31;9.10;99.90
17092;DHT22;8661;45.700;4.880;2023-04-03T05:19:58;9.10;99.90
17092;DHT22;8661;45.700;4.880;2023-04-03T05:22:25;9.10;99.90
17092;DHT22;8661;45.700;4.880;2023-04-03T05:25:03;9.10;99.90
17092;DHT22;8661;45.700;4.880;2023-04-03T05:27:30;9.10;99.90
17092;DHT22;8661;45.700;4.880;2023-04-03T05:29:58;9.10;99.90
17092;DHT22;8661;45.700;4.880;2023-04-03T05:32:25;9.10;99.90
17092;DHT22;8661;45.700;4.880;2023-04-03T05:34:54;9.10;99.90
17092;DHT22;8661;45.700;4.880;2023-04-03T05:37:21;9.10;99.90
17092;DHT22;8661;45.700;4.880;2023-04-03T05:39:48;9.10;99.90
17092;DHT22;8661;45.700;4.880;2023-04-03T05:42:16;9.10;99.90
17092;DHT22;8661;45.700;4.880;2023-04-03T05:44:43;9.10;99.90
17092;DHT22;8661;45.700;4.880;2023-04-03T05:47:12;9.00;99.90
17092;DHT22;8661;45.700;4.880;2023-04-03T05:49:39;9.00;99.90
17092;DHT22;8661;45.700;4.880;2023-04-03T05:52:16;9.10;99.90
17092;DHT22;8661;45.700;4.880;2023-04-03T05:54:44;9.10;99.90
17092;DHT22;8661;45.700;4.880;2023-04-03T05:57:13;9.10;99.90
17092;DHT22;8661;45.700;4.880;2023-04-03T05:59:41;9.10;99.90
17092;DHT22;8661;45.700;4.880;2023-04-03T06:02:10;9.00;99.90
17092;DHT22;8661;45.700;4.880;2023-04-03T06:04:39;9.10;99.90
17092;DHT22;8661;45.700;4.880;2023-04-03T06:07:06;9.00;99.90
17092;DHT22;8661;45.700;4.880;2023-04-03T06:09:34;9.00;99.90
17092;DHT22;8661;45.700;4.880;2023-04-03T06:12:01;8.90;99.90
17092;DHT22;8661;45.700;4.880;2023-04-03T06:14:28;9.10;99.90
17092;DHT22;8661;45.700;4.880;2023-04-03T06:16:55;9.00;99.90
17092;DHT22;8661;45.700;4.880;2023-04-03T06:19:23;9.00;99.90
17092;DHT22;8661;45.700;4.880;2023-04-03T06:21:49;9.10;99.90
17092;DHT22;8661;45.700;4.880;2023-04-03T06:24:17;9.10;99.90
17092;DHT22;8661;45.700;4.880;2023-04-03T06:26:47;9.10;99.90
17092;DHT22;8661;45.700;4.880;2023-04-03T06:29:14;9.10;99.90
17092;DHT22;8661;45.700;4.880;2023-04-03T06:31:41;9.10;99.90
17092;DHT22;8661;45.700;4.880;2023-04-03T06:34:08;9.10;99.90
17092;DHT22;8661;45.700;4.880;2023-04-03T06:36:36;9.00;99.90
17092;DHT22;8661;45.700;4.880;2023-04-03T06:39:04;9.00;99.90
17092;DHT22;8661;45.700;4.880;2023-04-03T06:41:32;9.00;99.90
17092;DHT22;8661;45.700;4.880;2023-04-03T06:44:01;9.10;99.90
17092;DHT22;8661;45.700;4.880;2023-04-03T06:46:28;9.10;99.90
17092;DHT22;8661;45.700;4.880;2023-04-03T06:48:55;9.10;99.90
17092;DHT22;8661;45.700;4.880;2023-04-03T06:51:24;9.10;99.90
17092;DHT22;8661;45.700;4.880;2023-04-03T06:53:53;9.10;99.90
17092;DHT22;8661;45.700;4.880;2023-04-03T06:56:21;9.20;99.90
17092;DHT22;8661;45.700;4.880;2023-04-03T06:58:48;9.10;99.90
17092;DHT22;8661;45.700;4.880;2023-04-03T07:01:18;9.20;99.90
17092;DHT22;8661;45.700;4.880;2023-04-03T07:03:46;9.20;99.90
17092;DHT22;8661;45.700;4.880;2023-04-03T07:06:15;9.20;99.90
17092;DHT22;8661;45.700;4.880;2023-04-03T07:08:42;9.20;99.90
17092;DHT22;8661;45.700;4.880;2023-04-03T07:11:10;9.20;99.90
17092;DHT22;8661;45.700;4.880;2023-04-03T07:13:37;9.30;99.90
17092;DHT22;8661;45.700;4.880;2023-04-03T07:16:05;9.30;99.90
17092;DHT22;8661;45.700;4.880;2023-04-03T07:18:34;9.40;99.90
17092;DHT22;8661;45.700;4.880;2023-04-03T07:21:01;9.40;99.90
17092;DHT22;8661;45.700;4.880;2023-04-03T07:23:29;9.40;99.90
17092;DHT22;8661;45.700;4.880;2023-04-03T07:25:56;9.40;99.90
17092;DHT22;8661;45.700;4.880;2023-04-03T07:28:23;9.40;99.90
17092;DHT22;8661;45.700;4.880;2023-04-03T07:30:52;9.40;99.90
17092;DHT22;8661;45.700;4.880;2023-04-03T07:33:22;9.30;99.90
17092;DHT22;8661;45.700;4.880;2023-04-03T07:35:51;9.30;99.90
17092;DHT22;8661;45.700;4.880;2023-04-03T07:38:18;9.30;99.90
17092;DHT22;8661;45.700;4.880;2023-04-03T07:40:46;9.50;99.90
17092;DHT22;8661;45.700;4.880;2023-04-03T07:43:13;9.50;99.90
17092;DHT22;8661;45.700;4.880;2023-04-03T07:45:43;9.50;99.90
17092;DHT22;8661;45.700;4.880;2023-04-03T07:48:11;9.50;99.90
17092;DHT22;8661;45.700;4.880;2023-04-03T07:50:40;9.50;99.90
17092;DHT22;8661;45.700;4.880;2023-04-03T07:53:08;9.50;99.90
17092;DHT22;8661;45.700;4.880;2023-04-03T07:55:36;9.60;99.90
17092;DHT22;8661;45.700;4.880;2023-04-03T07:58:08;9.60;99.90
17092;DHT22;8661;45.700;4.880;2023-04-03T08:00:36;9.50;99.90
17092;DHT22;8661;45.700;4.880;2023-04-03T08:03:03;9.50;99.90
17092;DHT22;8661;45.700;4.880;2023-04-03T08:05:30;9.50;99.90
17092;DHT22;8661;45.700;4.880;2023-04-03T08:07:57;9.50;99.90
17092;DHT22;8661;45.700;4.880;2023-04-03T08:10:25;9.40;99.90
17092;DHT22;8661;45.700;4.880;2023-04-03T08:12:52;9.20;99.90
17092;DHT22;8661;45.700;4.880;2023-04-03T08:15:20;9.20;99.90
17092;DHT22;8661;45.700;4.880;2023-04-03T08:17:47;9.20;99.90
17092;DHT22;8661;45.700;4.880;2023-04-03T08:20:14;9.20;99.90
17092;DHT22;8661;45.700;4.880;2023-04-03T08:22:41;9.30;99.90
17092;DHT22;8661;45.700;4.880;2023-04-03T08:25:08;9.30;99.90
17092;DHT22;8661;45.700;4.880;2023-04-03T08:27:37;9.30;99.90
17092;DHT22;8661;45.700;4.880;2023-04-03T08:30:04;9.20;99.90
17092;DHT22;8661;45.700;4.880;2023-04-03T08:32:33;9.10;99.90
17092;DHT22;8661;45.700;4.880;2023-04-03T08:35:00;9.10;99.90
17092;DHT22;8661;45.700;4.880;2023-04-03T08:37:27;9.10;99.90
17092;DHT22;8661;45.700;4.880;2023-04-03T08:39:54;9.10;99.90
17092;DHT22;8661;45.700;4.880;2023-04-03T08:42:34;9.10;99.90
17092;DHT22;8661;45.700;4.880;2023-04-03T08:45:10;9.10;99.90
17092;DHT22;8661;45.700;4.880;2023-04-03T08:47:39;9.20;99.90
17092;DHT22;8661;45.700;4.880;2023-04-03T08:50:11;9.20;99.90
17092;DHT22;8661;45.700;4.880;2023-04-03T08:52:40;9.20;99.90
17092;DHT22;8661;45.700;4.880;2023-04-03T08:55:17;9.30;99.90
17092;DHT22;8661;45.700;4.880;2023-04-03T08:57:47;9.30;99.90
17092;DHT22;8661;45.700;4.880;2023-04-03T09:00:20;9.30;99.90
17092;DHT22;8661;45.700;4.880;2023-04-03T09:02:49;9.40;99.90
17092;DHT22;8661;45.700;4.880;2023-04-03T09:05:17;9.40;99.90
17092;DHT22;8661;45.700;4.880;2023-04-03T09:07:47;9.40;99.90
17092;DHT22;8661;45.700;4.880;2023-04-03T09:10:16;9.40;99.90
17092;DHT22;8661;45.700;4.880;2023-04-03T09:12:50;9.40;99.90
17092;DHT22;8661;45.700;4.880;2023-04-03T09:15:22;9.40;99.90
17092;DHT22;8661;45.700;4.880;2023-04-03T09:17:59;9.50;99.90
17092;DHT22;8661;45.700;4.880;2023-04-03T09:20:37;9.40;99.90
17092;DHT22;8661;45.700;4.880;2023-04-03T09:23:16;9.40;99.90
17092;DHT22;8661;45.700;4.880;2023-04-03T09:25:45;9.30;99.90
17092;DHT22;8661;45.700;4.880;2023-04-03T09:28:12;9.30;99.90
17092;DHT22;8661;45.700;4.880;2023-04-03T09:30:40;9.50;99.90
17092;DHT22;8661;45.700;4.880;2023-04-03T09:33:08;9.60;99.90
17092;DHT22;8661;45.700;4.880;2023-04-03T09:35:37;9.70;99.90
17092;DHT22;8661;45.700;4.880;2023-04-03T09:38:17;9.90;99.90
17092;DHT22;8661;45.700;4.880;2023-04-03T09:40:45;9.90;99.90
17092;DHT22;8661;45.700;4.880;2023-04-03T09:43:27;10.00;99.90
17092;DHT22;8661;45.700;4.880;2023-04-03T09:46:15;10.10;99.90
17092;DHT22;8661;45.700;4.880;2023-04-03T09:48:50;10.00;99.90
17092;DHT22;8661;45.700;4.880;2023-04-03T09:51:17;9.80;99.90
17092;DHT22;8661;45.700;4.880;2023-04-03T09:53:45;9.70;99.90
17092;DHT22;8661;45.700;4.880;2023-04-03T09:56:24;9.80;99.90
17092;DHT22;8661;45.700;4.880;2023-04-03T09:59:06;9.80;99.90
17092;DHT22;8661;45.700;4.880;2023-04-03T10:01:37;9.80;99.90
17092;DHT22;8661;45.700;4.880;2023-04-03T10:04:10;10.00;99.90
17092;DHT22;8661;45.700;4.880;2023-04-03T10:06:39;10.40;99.90
17092;DHT22;8661;45.700;4.880;2023-04-03T10:09:17;10.70;99.90
17092;DHT22;8661;45.700;4.880;2023-04-03T10:11:58;10.90;99.90
17092;DHT22;8661;45.700;4.880;2023-04-03T10:14:26;10.90;99.90
17092;DHT22;8661;45.700;4.880;2023-04-03T10:17:00;10.90;99.90
17092;DHT22;8661;45.700;4.880;2023-04-03T10:19:39;10.70;99.90
17092;DHT22;8661;45.700;4.880;2023-04-03T10:22:15;10.70;99.90
17092;DHT22;8661;45.700;4.880;2023-04-03T10:24:50;10.80;99.90
17092;DHT22;8661;45.700;4.880;2023-04-03T10:27:26;10.90;99.90
17092;DHT22;8661;45.700;4.880;2023-04-03T10:29:59;10.90;99.90
17092;DHT22;8661;45.700;4.880;2023-04-03T10:32:45;10.70;99.90
17092;DHT22;8661;45.700;4.880;2023-04-03T10:35:20;10.60;99.90
17092;DHT22;8661;45.700;4.880;2023-04-03T10:38:01;10.60;99.90
17092;DHT22;8661;45.700;4.880;2023-04-03T10:40:34;10.60;99.90
17092;DHT22;8661;45.700;4.880;2023-04-03T10:43:08;10.80;99.90
17092;DHT22;8661;45.700;4.880;2023-04-03T10:45:51;11.00;99.90
17092;DHT22;8661;45.700;4.880;2023-04-03T10:48:28;10.90;99.90
17092;DHT22;8661;45.700;4.880;2023-04-03T10:51:10;11.00;99.90
17092;DHT22;8661;45.700;4.880;2023-04-03T10:53:46;11.00;99.90
17092;DHT22;8661;45.700;4.880;2023-04-03T10:56:21;11.10;99.90
17092;DHT22;8661;45.700;4.880;2023-04-03T10:58:54;10.90;99.90
17092;DHT22;8661;45.700;4.880;2023-04-03T11:01:29;10.90;99.90
17092;DHT22;8661;45.700;4.880;2023-04-03T11:04:00;10.80;99.90
17092;DHT22;8661;45.700;4.880;2023-04-03T11:06:34;10.80;99.90
17092;DHT22;8661;45.700;4.880;2023-04-03T11:09:07;10.90;99.90
17092;DHT22;8661;45.700;4.880;2023-04-03T11:11:37;11.00;99.90
17092;DHT22;8661;45.700;4.880;2023-04-03T11:14:09;11.00;99.90
17092;DHT22;8661;45.700;4.880;2023-04-03T11:16:45;11.10;99.90
17092;DHT22;8661;45.700;4.880;2023-04-03T11:19:19;11.20;99.90
17092;DHT22;8661;45.700;4.880;2023-04-03T11:21:52;11.30;99.90
17092;DHT22;8661;45.700;4.880;2023-04-03T11:24:24;11.50;99.90
17092;DHT22;8661;45.700;4.880;2023-04-03T11:26:53;11.70;99.90
17092;DHT22;8661;45.700;4.880;2023-04-03T11:29:23;12.10;99.90
17092;DHT22;8661;45.700;4.880;2023-04-03T11:32:09;13.20;99.90
17092;DHT22;8661;45.700;4.880;2023-04-03T11:34:43;14.30;99.90
17092;DHT22;8661;45.700;4.880;2023-04-03T11:37:15;14.90;99.90
17092;DHT22;8661;45.700;4.880;2023-04-03T11:39:51;15.30;99.90
17092;DHT22;8661;45.700;4.880;2023-04-03T11:42:33;15.70;99.90
17092;DHT22;8661;45.700;4.880;2023-04-03T11:45:23;16.00;99.90
17092;DHT22;8661;45.700;4.880;2023-04-03T11:47:53;16.10;99.90
17092;DHT22;8661;45.700;4.880;2023-04-03T11:50:41;16.20;99.90
17092;DHT22;8661;45.700;4.880;2023-04-03T11:53:34;16.30;99.90
17092;DHT22;8661;45.700;4.880;2023-04-03T11:56:28;16.60;99.90
17092;DHT22;8661;45.700;4.880;2023-04-03T11:59:21;16.50;99.90
17092;DHT22;8661;45.700;4.880;2023-04-03T12:01:52;16.40;99.90
17092;DHT22;8661;45.700;4.880;2023-04-03T12:04:24;16.00;99.90
17092;DHT22;8661;45.700;4.880;2023-04-03T12:07:00;16.20;99.90
17092;DHT22;8661;45.700;4.880;2023-04-03T12:09:54;16.40;99.90
17092;DHT22;8661;45.700;4.880;2023-04-03T12:12:32;16.60;99.90
17092;DHT22;8661;45.700;4.880;2023-04-03T12:15:25;16.40;99.90
17092;DHT22;8661;45.700;4.880;2023-04-03T12:17:52;16.50;99.90
17092;DHT22;8661;45.700;4.880;2023-04-03T12:20:54;16.30;99.90
17092;DHT22;8661;45.700;4.880;2023-04-03T12:23:29;16.70;99.90
17092;DHT22;8661;45.700;4.880;2023-04-03T12:26:05;16.50;99.90
17092;DHT22;8661;45.700;4.880;2023-04-03T12:28:42;16.30;99.90
17092;DHT22;8661;45.700;4.880;2023-04-03T12:31:10;16.30;99.90
17092;DHT22;8661;45.700;4.880;2023-04-03T12:33:51;16.10;99.90
17092;DHT22;8661;45.700;4.880;2023-04-03T12:36:32;16.10;99.90
17092;DHT22;8661;45.700;4.880;2023-04-03T12:39:06;15.90;99.90
17092;DHT22;8661;45.700;4.880;2023-04-03T12:41:43;15.80;99.90
17092;DHT22;8661;45.700;4.880;2023-04-03T12:44:25;15.70;99.90
17092;DHT22;8661;45.700;4.880;2023-04-03T12:46:53;15.40;99.90
17092;DHT22;8661;45.700;4.880;2023-04-03T12:49:34;15.20;99.90
17092;DHT22;8661;45.700;4.880;2023-04-03T12:52:05;15.00;99.90
17092;DHT22;8661;45.700;4.880;2023-04-03T12:54:36;14.70;99.90
17092;DHT22;8661;45.700;4.880;2023-04-03T12:57:10;14.40;99.90
17092;DHT22;8661;45.700;4.880;2023-04-03T12:59:37;14.10;99.90
17092;DHT22;8661;45.700;4.880;2023-04-03T13:02:16;14.20;99.90
17092;DHT22;8661;45.700;4.880;2023-04-03T13:04:44;14.10;99.90
17092;DHT22;8661;45.700;4.880;2023-04-03T13:07:22;14.00;99.90
17092;DHT22;8661;45.700;4.880;2023-04-03T13:10:04;14.10;99.90
17092;DHT22;8661;45.700;4.880;2023-04-03T13:12:46;14.20;99.90
17092;DHT22;8661;45.700;4.880;2023-04-03T13:15:17;14.00;99.90
17092;DHT22;8661;45.700;4.880;2023-04-03T13:17:45;13.90;99.90
17092;DHT22;8661;45.700;4.880;2023-04-03T13:20:18;14.10;99.90
17092;DHT22;8661;45.700;4.880;2023-04-03T13:22:49;14.30;99.90
17092;DHT22;8661;45.700;4.880;2023-04-03T13:25:20;14.60;99.90
17092;DHT22;8661;45.700;4.880;2023-04-03T13:27:47;14.60;99.90
17092;DHT22;8661;45.700;4.880;2023-04-03T13:30:27;14.70;99.90
17092;DHT22;8661;45.700;4.880;2023-04-03T13:32:56;14.60;99.90
17092;DHT22;8661;45.700;4.880;2023-04-03T13:35:42;14.80;99.90
17092;DHT22;8661;45.700;4.880;2023-04-03T13:38:23;15.00;99.90
17092;DHT22;8661;45.700;4.880;2023-04-03T13:40:53;15.10;99.90
17092;DHT22;8661;45.700;4.880;2023-04-03T13:43:23;15.40;99.90
17092;DHT22;8661;45.700;4.880;2023-04-03T13:45:59;15.40;99.90
17092;DHT22;8661;45.700;4.880;2023-04-03T13:48:27;15.20;99.90
17092;DHT22;8661;45.700;4.880;2023-04-03T13:51:03;15.10;99.90
17092;DHT22;8661;45.700;4.880;2023-04-03T13:53:32;14.90;99.90
17092;DHT22;8661;45.700;4.880;2023-04-03T13:56:06;15.00;99.90
17092;DHT22;8661;45.700;4.880;2023-04-03T13:58:34;15.10;99.90
17092;DHT22;8661;45.700;4.880;2023-04-03T14:01:08;14.90;99.90
17092;DHT22;8661;45.700;4.880;2023-04-03T14:03:42;14.60;99.90
17092;DHT22;8661;45.700;4.880;2023-04-03T14:06:12;14.50;99.90
17092;DHT22;8661;45.700;4.880;2023-04-03T14:08:40;14.30;99.90
17092;DHT22;8661;45.700;4.880;2023-04-03T14:11:13;14.20;99.90
17092;DHT22;8661;45.700;4.880;2023-04-03T14:13:41;14.10;99.90
17092;DHT22;8661;45.700;4.880;2023-04-03T14:16:11;14.10;99.90
17092;DHT22;8661;45.700;4.880;2023-04-03T14:18:38;14.30;99.90
17092;DHT22;8661;45.700;4.880;2023-04-03T14:21:05;14.20;99.90
17092;DHT22;8661;45.700;4.880;2023-04-03T14:23:32;14.20;99.90
17092;DHT22;8661;45.700;4.880;2023-04-03T14:26:00;14.10;99.90
17092;DHT22;8661;45.700;4.880;2023-04-03T14:28:28;14.10;99.90
17092;DHT22;8661;45.700;4.880;2023-04-03T14:30:56;14.20;99.90
17092;DHT22;8661;45.700;4.880;2023-04-03T14:33:23;14.10;99.90
17092;DHT22;8661;45.700;4.880;2023-04-03T14:35:52;14.30;99.90
17092;DHT22;8661;45.700;4.880;2023-04-03T14:38:25;14.60;99.90
17092;DHT22;8661;45.700;4.880;2023-04-03T14:40:53;14.70;99.90
17092;DHT22;8661;45.700;4.880;2023-04-03T14:43:22;14.60;99.90
17092;DHT22;8661;45.700;4.880;2023-04-03T14:45:50;14.50;99.90
17092;DHT22;8661;45.700;4.880;2023-04-03T14:48:19;14.70;99.90
17092;DHT22;8661;45.700;4.880;2023-04-03T14:50:47;14.90;99.90
17092;DHT22;8661;45.700;4.880;2023-04-03T14:53:17;15.20;99.80
17092;DHT22;8661;45.700;4.880;2023-04-03T14:55:53;14.90;99.90
17092;DHT22;8661;45.700;4.880;2023-04-03T14:58:20;15.10;99.60
17092;DHT22;8661;45.700;4.880;2023-04-03T15:00:47;15.30;99.40
17092;DHT22;8661;45.700;4.880;2023-04-03T15:03:21;15.30;99.60
17092;DHT22;8661;45.700;4.880;2023-04-03T15:05:49;15.90;99.00
17092;DHT22;8661;45.700;4.880;2023-04-03T15:08:21;16.00;97.90
17092;DHT22;8661;45.700;4.880;2023-04-03T15:10:50;15.40;97.40
17092;DHT22;8661;45.700;4.880;2023-04-03T15:13:19;15.10;98.30
17092;DHT22;8661;45.700;4.880;2023-04-03T15:15:46;15.70;97.40
17092;DHT22;8661;45.700;4.880;2023-04-03T15:18:20;15.10;97.60
17092;DHT22;8661;45.700;4.880;2023-04-03T15:20:49;14.70;98.20
17092;DHT22;8661;45.700;4.880;2023-04-03T15:23:21;15.00;97.90
17092;DHT22;8661;45.700;4.880;2023-04-03T15:25:51;14.40;98.00
17092;DHT22;8661;45.700;4.880;2023-04-03T15:28:31;14.20;98.50
17092;DHT22;8661;45.700;4.880;2023-04-03T15:30:59;14.10;98.50
17092;DHT22;8661;45.700;4.880;2023-04-03T15:33:28;13.90;99.10
17092;DHT22;8661;45.700;4.880;2023-04-03T15:35:55;14.00;99.30
17092;DHT22;8661;45.700;4.880;2023-04-03T15:38:22;14.20;99.00
17092;DHT22;8661;45.700;4.880;2023-04-03T15:40:49;14.00;99.40
17092;DHT22;8661;45.700;4.880;2023-04-03T15:43:17;13.90;99.30
17092;DHT22;8661;45.700;4.880;2023-04-03T15:45:44;13.50;99.70
17092;DHT22;8661;45.700;4.880;2023-04-03T15:48:11;13.30;99.80
17092;DHT22;8661;45.700;4.880;2023-04-03T15:50:41;13.00;99.90
17092;DHT22;8661;45.700;4.880;2023-04-03T15:53:08;12.80;99.90
17092;DHT22;8661;45.700;4.880;2023-04-03T15:55:37;12.80;99.90
17092;DHT22;8661;45.700;4.880;2023-04-03T15:58:04;12.80;99.90
17092;DHT22;8661;45.700;4.880;2023-04-03T16:00:31;12.60;99.90
17092;DHT22;8661;45.700;4.880;2023-04-03T16:03:00;12.70;99.90
17092;DHT22;8661;45.700;4.880;2023-04-03T16:05:29;12.60;99.70
17092;DHT22;8661;45.700;4.880;2023-04-03T16:07:59;12.40;99.90
17092;DHT22;8661;45.700;4.880;2023-04-03T16:10:27;12.30;99.90
17092;DHT22;8661;45.700;4.880;2023-04-03T16:12:54;12.10;99.60
17092;DHT22;8661;45.700;4.880;2023-04-03T16:15:21;12.10;99.70
17092;DHT22;8661;45.700;4.880;2023-04-03T16:17:53;12.00;99.90